logo
Search for airport 
image banner adimage banner adimage banner ad
image banner ad

VISR - Srinagar Indian Air Force

Located in Srinagar, India

ICAO - VISR, IATA - SXR

Data provided by Airmate  

General information

Coordinates: N33°59'18" E74°46'27"
Elevation is 5437 feet MSL.
Magnetic variation is 3° East
View others Airports in Jammu and Kashmir

Operational data

Special qualification required
Current time UTC:
Current local time:
Weather
TAF: TAF VISR 220930Z 2212/2224 30005KT 6000 SCT020 SCT100 TEMPO 2212/2216 24015G25KT TSRA SCT020 FEW025CB BKN090
View NOTAMs / SUP AIP / TFR affecting this airport [VIEW]
Communications frequencies: [VIEW]

Runways:

RWY identifierQFULength (ft)Width (ft)SurfaceLDA (ft)
1312001150ASP
3112001150ASP

Airport contact information

Address: Srinagar India

Satellite view of VISR